Wetterdaten vom Samstag, 23. März 2019

Temperatur Taupunkt Windchill Luftfeuchte Luftdruck Solarstrahlung Regen ET
(Verdunstung von Wasser)
Wind
Max 20 °C
15:15
6 °C
12:20
19.6 °C
14:00
90%
06:55
1024.9 hPa
00:00
665 W/m²
12:25
35 km/h
14:40 km/h
Durchschnitt 7.5 °C 1.6 °C 6 °C 70% 1024 hPa 447 W/m² 0 mm 2.667 mm 6.7 km/h
Min -1.1 °C
06:30
-2.8 °C
06:30
-1.1 °C
06:30
35%
15:20
1022.4 hPa
15:10
0 km/h (Böe)
00:00 km/h
Zeit
00:00 4.1 °C 1.0 °C 4.1 °C 80% 1024.9 hPa 0 W/m² 0.0 mm 0.000 mm 0.0 km/h
00:05 4.0 °C 0.9 °C 4.0 °C 80% 1024.8 hPa 0 W/m² 0.0 mm 0.000 mm 0.0 km/h
00:10 3.9 °C 0.8 °C 3.9 °C 80% 1024.8 hPa 0 W/m² 0.0 mm 0.000 mm 0.0 km/h
00:15 3.8 °C 0.7 °C 3.8 °C 80% 1024.7 hPa 0 W/m² 0.0 mm 0.000 mm 0.0 km/h
00:20 3.8 °C 0.7 °C 3.8 °C 80% 1024.7 hPa 0 W/m² 0.0 mm 0.000 mm 0.0 km/h
00:25 3.7 °C 0.7 °C 3.7 °C 81% 1024.7 hPa 0 W/m² 0.0 mm 0.000 mm 0.0 km/h
00:30 3.6 °C 0.7 °C 3.6 °C 81% 1024.6 hPa 0 W/m² 0.0 mm 0.000 mm 0.0 km/h
00:35 3.5 °C 0.6 °C 3.5 °C 81% 1024.5 hPa 0 W/m² 0.0 mm 0.000 mm 0.0 km/h
00:40 3.4 °C 0.5 °C 3.4 °C 81% 1024.5 hPa 0 W/m² 0.0 mm 0.000 mm 0.0 km/h
00:45 3.3 °C 0.4 °C 3.3 °C 81% 1024.5 hPa 0 W/m² 0.0 mm 0.000 mm 0.0 km/h
00:50 3.2 °C 0.3 °C 3.2 °C 81% 1024.4 hPa 0 W/m² 0.0 mm 0.000 mm 0.0 km/h
00:55 3.1 °C 0.2 °C 3.1 °C 81% 1024.5 hPa 0 W/m² 0.0 mm 0.000 mm 0.0 km/h
01:00 2.9 °C -0.0 °C 2.9 °C 81% 1024.4 hPa 0 W/m² 0.0 mm 0.000 mm 0.0 km/h
01:05 2.8 °C 0.0 °C 2.8 °C 82% 1024.5 hPa 0 W/m² 0.0 mm 0.000 mm 0.0 km/h
01:10 2.8 °C 0.0 °C 2.8 °C 82% 1024.4 hPa 0 W/m² 0.0 mm 0.000 mm 0.0 km/h
01:15 2.7 °C -0.1 °C 2.7 °C 82% 1024.3 hPa 0 W/m² 0.0 mm 0.000 mm 0.0 km/h
01:20 2.6 °C -0.2 °C 2.6 °C 82% 1024.5 hPa 0 W/m² 0.0 mm 0.000 mm 0.0 km/h
01:25 2.5 °C -0.1 °C 2.5 °C 83% 1024.5 hPa 0 W/m² 0.0 mm 0.000 mm 0.0 km/h
01:30 2.4 °C -0.2 °C 2.4 °C 83% 1024.4 hPa 0 W/m² 0.0 mm 0.000 mm 0.0 km/h
01:35 2.3 °C -0.3 °C 2.3 °C 83% 1024.5 hPa 0 W/m² 0.0 mm 0.000 mm 0.1 km/h
01:40 2.3 °C -0.1 °C 2.3 °C 84% 1024.4 hPa 0 W/m² 0.0 mm 0.000 mm 0.0 km/h
01:45 2.1 °C -0.3 °C 2.1 °C 84% 1024.4 hPa 0 W/m² 0.0 mm 0.000 mm 1.0 km/h
01:50 2.0 °C -0.3 °C 2.0 °C 85% 1024.3 hPa 0 W/m² 0.0 mm 0.000 mm 2.4 km/h
01:55 1.9 °C -0.3 °C 1.9 °C 85% 1024.4 hPa 0 W/m² 0.0 mm 0.000 mm 2.6 km/h
02:00 1.8 °C -0.4 °C 1.8 °C 85% 1024.4 hPa 0 W/m² 0.0 mm 0.000 mm 0.0 km/h
02:05 1.8 °C -0.4 °C 1.8 °C 85% 1024.4 hPa 0 W/m² 0.0 mm 0.000 mm 0.0 km/h
02:10 1.7 °C -0.5 °C 1.7 °C 85% 1024.4 hPa 0 W/m² 0.0 mm 0.000 mm 0.0 km/h
02:15 1.6 °C -0.6 °C 1.6 °C 85% 1024.4 hPa 0 W/m² 0.0 mm 0.000 mm 0.0 km/h
02:20 1.5 °C -0.7 °C 1.5 °C 85% 1024.4 hPa 0 W/m² 0.0 mm 0.000 mm 0.0 km/h
02:25 1.4 °C -0.8 °C 1.4 °C 85% 1024.4 hPa 0 W/m² 0.0 mm 0.000 mm 0.0 km/h
02:30 1.3 °C -0.9 °C 1.3 °C 85% 1024.4 hPa 0 W/m² 0.0 mm 0.000 mm 0.0 km/h
02:35 1.2 °C -1.0 °C 1.2 °C 85% 1024.4 hPa 0 W/m² 0.0 mm 0.000 mm 0.0 km/h
02:40 1.2 °C -1.0 °C 1.2 °C 85% 1024.3 hPa 0 W/m² 0.0 mm 0.000 mm 0.0 km/h
02:45 1.1 °C -1.1 °C 1.1 °C 85% 1024.4 hPa 0 W/m² 0.0 mm 0.000 mm 0.0 km/h
02:50 1.0 °C -1.2 °C 1.0 °C 85% 1024.4 hPa 0 W/m² 0.0 mm 0.000 mm 0.0 km/h
02:55 0.9 °C -1.2 °C 0.9 °C 86% 1024.4 hPa 0 W/m² 0.0 mm 0.000 mm 0.0 km/h
03:00 0.9 °C -1.2 °C 0.9 °C 86% 1024.3 hPa 0 W/m² 0.0 mm 0.000 mm 0.1 km/h
03:05 0.8 °C -1.3 °C 0.8 °C 86% 1024.3 hPa 0 W/m² 0.0 mm 0.000 mm 0.0 km/h
03:10 0.8 °C -1.3 °C 0.8 °C 86% 1024.3 hPa 0 W/m² 0.0 mm 0.000 mm 0.0 km/h
03:15 0.7 °C -1.4 °C 0.7 °C 86% 1024.4 hPa 0 W/m² 0.0 mm 0.000 mm 0.0 km/h
03:20 0.7 °C -1.4 °C 0.7 °C 86% 1024.3 hPa 0 W/m² 0.0 mm 0.000 mm 0.0 km/h
03:25 0.6 °C -1.5 °C 0.6 °C 86% 1024.2 hPa 0 W/m² 0.0 mm 0.000 mm 0.0 km/h
03:30 0.6 °C -1.5 °C 0.6 °C 86% 1024.4 hPa 0 W/m² 0.0 mm 0.000 mm 0.0 km/h
03:35 0.5 °C -1.6 °C 0.5 °C 86% 1024.3 hPa 0 W/m² 0.0 mm 0.000 mm 0.0 km/h
03:40 0.4 °C -1.7 °C 0.4 °C 86% 1024.2 hPa 0 W/m² 0.0 mm 0.000 mm 0.0 km/h
03:45 0.4 °C -1.7 °C 0.4 °C 86% 1024.1 hPa 0 W/m² 0.0 mm 0.000 mm 0.1 km/h
03:50 0.3 °C -1.8 °C 0.3 °C 86% 1024.1 hPa 0 W/m² 0.0 mm 0.000 mm 0.0 km/h
03:55 0.3 °C -1.8 °C 0.3 °C 86% 1024.1 hPa 0 W/m² 0.0 mm 0.000 mm 0.0 km/h
04:00 0.2 °C -1.9 °C 0.2 °C 86% 1024.1 hPa 0 W/m² 0.0 mm 0.000 mm 0.0 km/h
04:05 0.1 °C -2.0 °C 0.1 °C 86% 1024.1 hPa 0 W/m² 0.0 mm 0.000 mm 0.0 km/h
04:10 0.0 °C -1.9 °C 0.0 °C 87% 1024.1 hPa 0 W/m² 0.0 mm 0.000 mm 0.0 km/h
04:15 0.0 °C -1.9 °C 0.0 °C 87% 1024.0 hPa 0 W/m² 0.0 mm 0.000 mm 0.0 km/h
04:20 -0.1 °C -2.0 °C -0.1 °C 87% 1024.0 hPa 0 W/m² 0.0 mm 0.000 mm 0.0 km/h
04:25 -0.1 °C -2.0 °C -0.1 °C 87% 1024.0 hPa 0 W/m² 0.0 mm 0.000 mm 0.1 km/h
04:30 -0.2 °C -2.1 °C -0.2 °C 87% 1024.0 hPa 0 W/m² 0.0 mm 0.000 mm 0.4 km/h
04:35 -0.2 °C -2.1 °C -0.2 °C 87% 1023.9 hPa 0 W/m² 0.0 mm 0.000 mm 0.3 km/h
04:40 -0.2 °C -2.1 °C -0.2 °C 87% 1023.9 hPa 0 W/m² 0.0 mm 0.000 mm 0.3 km/h
04:45 -0.2 °C -1.9 °C -0.2 °C 88% 1024.0 hPa 0 W/m² 0.0 mm 0.000 mm 0.0 km/h
04:50 -0.3 °C -2.0 °C -0.3 °C 88% 1023.9 hPa 0 W/m² 0.0 mm 0.000 mm 0.0 km/h
04:55 -0.3 °C -2.0 °C -0.3 °C 88% 1023.9 hPa 0 W/m² 0.0 mm 0.000 mm 0.0 km/h
05:00 -0.4 °C -2.1 °C -0.4 °C 88% 1023.9 hPa 0 W/m² 0.0 mm 0.000 mm 0.0 km/h
05:05 -0.4 °C -2.1 °C -0.4 °C 88% 1023.9 hPa 0 W/m² 0.0 mm 0.000 mm 0.0 km/h
05:10 -0.5 °C -2.2 °C -0.5 °C 88% 1023.9 hPa 0 W/m² 0.0 mm 0.000 mm 0.0 km/h
05:15 -0.6 °C -2.3 °C -0.6 °C 88% 1024.0 hPa 0 W/m² 0.0 mm 0.000 mm 0.0 km/h
05:20 -0.6 °C -2.3 °C -0.6 °C 88% 1024.0 hPa 0 W/m² 0.0 mm 0.000 mm 0.0 km/h
05:25 -0.6 °C -2.3 °C -0.6 °C 88% 1024.0 hPa 0 W/m² 0.0 mm 0.000 mm 0.0 km/h
05:30 -0.6 °C -2.3 °C -0.6 °C 88% 1024.0 hPa 0 W/m² 0.0 mm 0.000 mm 0.0 km/h
05:35 -0.6 °C -2.3 °C -0.6 °C 88% 1024.0 hPa 0 W/m² 0.0 mm 0.000 mm 0.0 km/h
05:40 -0.7 °C -2.4 °C -0.7 °C 88% 1024.1 hPa 0 W/m² 0.0 mm 0.000 mm 0.0 km/h
05:45 -0.7 °C -2.4 °C -0.7 °C 88% 1024.1 hPa 0 W/m² 0.0 mm 0.000 mm 0.0 km/h
05:50 -0.7 °C -2.4 °C -0.7 °C 88% 1024.1 hPa 0 W/m² 0.0 mm 0.000 mm 0.0 km/h
05:55 -0.8 °C -2.5 °C -0.8 °C 88% 1024.2 hPa 0 W/m² 0.0 mm 0.000 mm 0.0 km/h
06:00 -0.8 °C -2.5 °C -0.8 °C 88% 1024.2 hPa 0 W/m² 0.0 mm 0.000 mm 0.0 km/h
06:05 -0.9 °C -2.6 °C -0.9 °C 88% 1024.2 hPa 0 W/m² 0.0 mm 0.000 mm 0.0 km/h
06:10 -0.9 °C -2.6 °C -0.9 °C 88% 1024.2 hPa 0 W/m² 0.0 mm 0.000 mm 0.0 km/h
06:15 -0.9 °C -2.6 °C -0.9 °C 88% 1024.3 hPa 0 W/m² 0.0 mm 0.000 mm 0.0 km/h
06:20 -0.9 °C -2.6 °C -0.9 °C 88% 1024.4 hPa 4 W/m² 0.0 mm 0.000 mm 0.0 km/h
06:25 -1.0 °C -2.7 °C -1.0 °C 88% 1024.4 hPa 8 W/m² 0.0 mm 0.000 mm 0.0 km/h
06:30 -1.1 °C -2.8 °C -1.1 °C 88% 1024.3 hPa 10 W/m² 0.0 mm 0.000 mm 0.2 km/h
06:35 -1.1 °C -2.7 °C -1.1 °C 89% 1024.3 hPa 13 W/m² 0.0 mm 0.000 mm 0.0 km/h
06:40 -1.1 °C -2.7 °C -1.1 °C 89% 1024.4 hPa 17 W/m² 0.0 mm 0.000 mm 0.0 km/h
06:45 -1.0 °C -2.6 °C -1.0 °C 89% 1024.4 hPa 21 W/m² 0.0 mm 0.000 mm 0.6 km/h
06:50 -0.8 °C -2.4 °C -0.8 °C 89% 1024.4 hPa 26 W/m² 0.0 mm 0.000 mm 2.0 km/h
06:55 -0.6 °C -2.0 °C -0.6 °C 90% 1024.4 hPa 33 W/m² 0.0 mm 0.000 mm 0.0 km/h
07:00 -0.5 °C -2.1 °C -0.5 °C 89% 1024.4 hPa 40 W/m² 0.0 mm 0.000 mm 0.0 km/h
07:05 -0.4 °C -2.0 °C -0.4 °C 89% 1024.4 hPa 48 W/m² 0.0 mm 0.000 mm 0.0 km/h
07:10 -0.2 °C -1.6 °C -0.2 °C 90% 1024.4 hPa 58 W/m² 0.0 mm 0.000 mm 0.0 km/h
07:15 0.0 °C -1.4 °C 0.0 °C 90% 1024.5 hPa 67 W/m² 0.0 mm 0.000 mm 0.0 km/h
07:20 0.2 °C -1.2 °C 0.2 °C 90% 1024.5 hPa 77 W/m² 0.0 mm 0.000 mm 0.0 km/h
07:25 0.4 °C -1.2 °C 0.4 °C 89% 1024.5 hPa 89 W/m² 0.0 mm 0.000 mm 0.0 km/h
07:30 0.6 °C -1.0 °C 0.6 °C 89% 1024.5 hPa 99 W/m² 0.0 mm 0.000 mm 0.0 km/h
07:35 0.8 °C -0.8 °C 0.8 °C 89% 1024.6 hPa 112 W/m² 0.0 mm 0.000 mm 0.0 km/h
07:40 1.1 °C -0.7 °C 1.1 °C 88% 1024.5 hPa 127 W/m² 0.0 mm 0.000 mm 0.0 km/h
07:45 1.4 °C -0.4 °C 1.4 °C 88% 1024.5 hPa 141 W/m² 0.0 mm 0.000 mm 0.0 km/h
07:50 1.7 °C -0.1 °C 1.7 °C 88% 1024.4 hPa 157 W/m² 0.0 mm 0.000 mm 0.0 km/h
07:55 2.1 °C 0.2 °C 2.1 °C 87% 1024.4 hPa 174 W/m² 0.0 mm 0.000 mm 0.0 km/h
08:00 2.4 °C 0.3 °C 2.4 °C 86% 1024.4 hPa 191 W/m² 0.0 mm 0.000 mm 0.0 km/h
08:05 2.7 °C 0.6 °C 2.7 °C 86% 1024.5 hPa 207 W/m² 0.0 mm 0.051 mm 0.0 km/h
08:10 3.1 °C 0.8 °C 3.1 °C 85% 1024.6 hPa 224 W/m² 0.0 mm 0.000 mm 0.0 km/h
08:15 3.4 °C 1.0 °C 3.4 °C 84% 1024.6 hPa 242 W/m² 0.0 mm 0.000 mm 0.0 km/h
08:20 3.8 °C 1.2 °C 3.8 °C 83% 1024.6 hPa 258 W/m² 0.0 mm 0.000 mm 0.0 km/h
08:25 4.3 °C 1.5 °C 4.3 °C 82% 1024.5 hPa 273 W/m² 0.0 mm 0.000 mm 0.0 km/h
08:30 4.8 °C 1.8 °C 4.8 °C 81% 1024.6 hPa 286 W/m² 0.0 mm 0.000 mm 0.0 km/h
08:35 5.3 °C 2.3 °C 5.3 °C 81% 1024.4 hPa 300 W/m² 0.0 mm 0.000 mm 2.0 km/h
08:40 5.9 °C 2.9 °C 5.9 °C 81% 1024.5 hPa 314 W/m² 0.0 mm 0.000 mm 3.8 km/h
08:45 6.5 °C 3.3 °C 6.5 °C 80% 1024.5 hPa 327 W/m² 0.0 mm 0.000 mm 3.2 km/h
08:50 6.9 °C 3.5 °C 6.9 °C 79% 1024.5 hPa 339 W/m² 0.0 mm 0.000 mm 3.5 km/h
08:55 7.4 °C 4.0 °C 7.4 °C 79% 1024.5 hPa 352 W/m² 0.0 mm 0.000 mm 3.5 km/h
09:00 8.0 °C 4.2 °C 4.9 °C 77% 1024.4 hPa 364 W/m² 0.0 mm 0.000 mm 10.8 km/h
09:05 8.4 °C 4.2 °C -0.0 °C 75% 1024.5 hPa 377 W/m² 0.0 mm 0.127 mm 23.9 km/h
09:10 8.8 °C 4.4 °C 1.0 °C 74% 1024.6 hPa 390 W/m² 0.0 mm 0.000 mm 22.3 km/h
09:15 9.1 °C 4.5 °C 1.8 °C 73% 1024.6 hPa 402 W/m² 0.0 mm 0.000 mm 20.9 km/h
09:20 9.4 °C 4.6 °C 3.0 °C 72% 1024.7 hPa 414 W/m² 0.0 mm 0.000 mm 18.5 km/h
09:25 9.7 °C 4.7 °C 3.2 °C 71% 1024.5 hPa 426 W/m² 0.0 mm 0.000 mm 19.1 km/h
09:30 10.0 °C 4.6 °C 2.2 °C 69% 1024.6 hPa 437 W/m² 0.0 mm 0.000 mm 23.8 km/h
09:35 10.3 °C 4.7 °C 2.3 °C 68% 1024.5 hPa 447 W/m² 0.0 mm 0.000 mm 24.8 km/h
09:40 10.6 °C 4.7 °C 2.4 °C 67% 1024.5 hPa 457 W/m² 0.0 mm 0.000 mm 26.1 km/h
09:45 10.9 °C 4.8 °C 4.9 °C 66% 1024.4 hPa 466 W/m² 0.0 mm 0.000 mm 18.6 km/h
09:50 11.2 °C 4.9 °C 5.4 °C 65% 1024.3 hPa 480 W/m² 0.0 mm 0.000 mm 18.3 km/h
09:55 11.5 °C 4.9 °C 7.4 °C 64% 1024.2 hPa 489 W/m² 0.0 mm 0.000 mm 13.8 km/h
10:00 11.8 °C 5.2 °C 6.8 °C 64% 1024.2 hPa 500 W/m² 0.0 mm 0.279 mm 16.4 km/h
10:05 11.9 °C 5.1 °C 6.7 °C 63% 1024.2 hPa 508 W/m² 0.0 mm 0.000 mm 17.1 km/h
10:10 12.2 °C 5.1 °C 7.9 °C 62% 1024.1 hPa 519 W/m² 0.0 mm 0.000 mm 14.7 km/h
10:15 12.4 °C 5.1 °C 8.7 °C 61% 1024.2 hPa 529 W/m² 0.0 mm 0.000 mm 13.4 km/h
10:20 12.7 °C 4.9 °C 7.6 °C 59% 1024.2 hPa 539 W/m² 0.0 mm 0.000 mm 17.4 km/h
10:25 13.1 °C 5.0 °C 8.1 °C 58% 1024.2 hPa 546 W/m² 0.0 mm 0.000 mm 17.4 km/h
10:30 13.2 °C 4.9 °C 9.5 °C 57% 1024.2 hPa 554 W/m² 0.0 mm 0.000 mm 13.6 km/h
10:35 13.5 °C 4.9 °C 10.5 °C 56% 1024.2 hPa 562 W/m² 0.0 mm 0.000 mm 12.1 km/h
10:40 13.8 °C 5.2 °C 12.0 °C 56% 1024.2 hPa 572 W/m² 0.0 mm 0.000 mm 9.5 km/h
10:45 14.2 °C 5.3 °C 14.2 °C 55% 1024.1 hPa 577 W/m² 0.0 mm 0.000 mm 5.8 km/h
10:50 14.4 °C 4.9 °C 11.5 °C 53% 1024.2 hPa 585 W/m² 0.0 mm 0.000 mm 12.1 km/h
10:55 14.6 °C 4.9 °C 11.9 °C 52% 1024.1 hPa 590 W/m² 0.0 mm 0.000 mm 11.8 km/h
11:00 14.8 °C 5.3 °C 14.1 °C 53% 1024.1 hPa 600 W/m² 0.0 mm 0.330 mm 7.6 km/h
11:05 15.1 °C 5.6 °C 13.0 °C 53% 1024.0 hPa 606 W/m² 0.0 mm 0.000 mm 10.6 km/h
11:10 15.2 °C 5.7 °C 15.2 °C 53% 1024.0 hPa 612 W/m² 0.0 mm 0.000 mm 4.0 km/h
11:11 15.4 °C 5.3 °C 10.9 °C 51% 1024.0 hPa 617 W/m² 0.0 mm 0.000 mm 17.7 km/h
11:12 15.5 °C 5.7 °C 11.0 °C 52% 1024.0 hPa 619 W/m² 0.0 mm 0.000 mm 17.7 km/h
11:13 15.6 °C 5.5 °C 11.1 °C 51% 1024.0 hPa 619 W/m² 0.0 mm 0.000 mm 17.7 km/h
11:14 15.7 °C 5.6 °C 12.2 °C 51% 1024.0 hPa 621 W/m² 0.0 mm 0.000 mm 14.5 km/h
11:15 15.7 °C 5.6 °C 14.0 °C 51% 1024.0 hPa 621 W/m² 0.0 mm 0.000 mm 9.7 km/h
11:16 15.8 °C 5.7 °C 15.8 °C 51% 1024.0 hPa 624 W/m² 0.0 mm 0.000 mm 6.4 km/h
11:17 15.8 °C 5.4 °C 14.1 °C 50% 1023.9 hPa 622 W/m² 0.0 mm 0.000 mm 9.7 km/h
11:18 15.8 °C 5.4 °C 14.9 °C 50% 1024.0 hPa 626 W/m² 0.0 mm 0.000 mm 8.0 km/h
11:19 15.9 °C 5.5 °C 12.4 °C 50% 1023.8 hPa 628 W/m² 0.0 mm 0.000 mm 14.5 km/h
11:20 15.9 °C 5.5 °C 15.9 °C 50% 1023.8 hPa 628 W/m² 0.0 mm 0.000 mm 4.8 km/h
11:21 16.0 °C 5.6 °C 16.0 °C 50% 1023.8 hPa 628 W/m² 0.0 mm 0.000 mm 4.8 km/h
11:22 16.1 °C 5.7 °C 14.5 °C 50% 1023.8 hPa 629 W/m² 0.0 mm 0.000 mm 9.7 km/h
11:23 16.1 °C 5.4 °C 13.2 °C 49% 1023.9 hPa 631 W/m² 0.0 mm 0.000 mm 12.9 km/h
11:24 16.2 °C 5.5 °C 16.2 °C 49% 1023.8 hPa 633 W/m² 0.0 mm 0.000 mm 4.8 km/h
11:25 16.2 °C 5.2 °C 10.7 °C 48% 1023.8 hPa 633 W/m² 0.0 mm 0.000 mm 22.5 km/h
11:26 16.2 °C 5.2 °C 12.8 °C 48% 1023.8 hPa 635 W/m² 0.0 mm 0.000 mm 14.5 km/h
11:30 16.2 °C 5.2 °C 11.4 °C 48% 1023.8 hPa 638 W/m² 0.0 mm 0.000 mm 19.6 km/h
11:35 16.3 °C 5.3 °C 11.0 °C 48% 1023.7 hPa 641 W/m² 0.0 mm 0.000 mm 22.0 km/h
11:40 16.2 °C 4.9 °C 10.8 °C 47% 1023.7 hPa 643 W/m² 0.0 mm 0.000 mm 22.0 km/h
11:45 16.4 °C 5.4 °C 12.2 °C 48% 1023.7 hPa 650 W/m² 0.0 mm 0.000 mm 17.6 km/h
11:50 16.5 °C 5.2 °C 12.4 °C 47% 1023.7 hPa 648 W/m² 0.0 mm 0.000 mm 17.3 km/h
11:55 16.7 °C 5.3 °C 12.3 °C 47% 1023.7 hPa 640 W/m² 0.0 mm 0.000 mm 18.4 km/h
12:00 16.8 °C 5.1 °C 14.2 °C 46% 1023.7 hPa 656 W/m² 0.0 mm 0.432 mm 12.3 km/h
12:05 17.0 °C 5.3 °C 13.9 °C 46% 1023.7 hPa 656 W/m² 0.0 mm 0.000 mm 13.9 km/h
12:10 17.2 °C 5.5 °C 16.4 °C 46% 1023.7 hPa 659 W/m² 0.0 mm 0.000 mm 8.1 km/h
12:15 17.4 °C 5.7 °C 14.8 °C 46% 1023.7 hPa 662 W/m² 0.0 mm 0.000 mm 12.6 km/h
12:20 17.8 °C 6.0 °C 16.1 °C 46% 1023.7 hPa 663 W/m² 0.0 mm 0.000 mm 10.2 km/h
12:25 18.0 °C 5.2 °C 17.5 °C 43% 1023.5 hPa 665 W/m² 0.0 mm 0.000 mm 7.5 km/h
12:30 18.2 °C 5.7 °C 17.9 °C 44% 1023.5 hPa 663 W/m² 0.0 mm 0.000 mm 7.0 km/h
12:35 18.4 °C 5.9 °C 18.4 °C 44% 1023.5 hPa 651 W/m² 0.0 mm 0.000 mm 5.0 km/h
12:40 18.5 °C 5.7 °C 17.1 °C 43% 1023.5 hPa 630 W/m² 0.0 mm 0.000 mm 9.7 km/h
12:45 18.6 °C 5.8 °C 18.6 °C 43% 1023.5 hPa 643 W/m² 0.0 mm 0.000 mm 4.1 km/h
12:50 18.6 °C 5.4 °C 15.8 °C 42% 1023.5 hPa 651 W/m² 0.0 mm 0.000 mm 14.1 km/h
12:55 18.5 °C 5.3 °C 15.7 °C 42% 1023.5 hPa 647 W/m² 0.0 mm 0.000 mm 14.1 km/h
13:00 18.5 °C 6.0 °C 17.3 °C 44% 1023.4 hPa 644 W/m² 0.0 mm 0.432 mm 9.2 km/h
13:05 18.7 °C 5.9 °C 16.4 °C 43% 1023.3 hPa 632 W/m² 0.0 mm 0.000 mm 12.5 km/h
13:10 18.9 °C 5.7 °C 15.3 °C 42% 1023.3 hPa 638 W/m² 0.0 mm 0.000 mm 17.6 km/h
13:15 19.0 °C 5.4 °C 18.0 °C 41% 1023.3 hPa 657 W/m² 0.0 mm 0.000 mm 8.8 km/h
13:20 19.0 °C 5.4 °C 18.1 °C 41% 1023.2 hPa 651 W/m² 0.0 mm 0.000 mm 8.6 km/h
13:25 19.1 °C 4.8 °C 16.2 °C 39% 1023.2 hPa 646 W/m² 0.0 mm 0.000 mm 15.0 km/h
13:30 19.2 °C 4.5 °C 13.8 °C 38% 1023.2 hPa 643 W/m² 0.0 mm 0.000 mm 28.2 km/h
13:35 19.3 °C 5.0 °C 16.8 °C 39% 1023.1 hPa 633 W/m² 0.0 mm 0.000 mm 13.4 km/h
13:40 19.4 °C 4.7 °C 14.2 °C 38% 1023.2 hPa 629 W/m² 0.0 mm 0.000 mm 27.4 km/h
13:45 19.5 °C 4.8 °C 14.9 °C 38% 1023.1 hPa 624 W/m² 0.0 mm 0.000 mm 23.5 km/h
13:50 19.6 °C 4.5 °C 14.6 °C 37% 1023.0 hPa 618 W/m² 0.0 mm 0.000 mm 26.9 km/h
13:55 19.6 °C 4.1 °C 16.5 °C 36% 1023.0 hPa 613 W/m² 0.0 mm 0.000 mm 16.0 km/h
14:00 19.6 °C 4.1 °C 19.6 °C 36% 1022.9 hPa 611 W/m² 0.0 mm 0.508 mm 5.9 km/h
14:05 19.6 °C 4.1 °C 16.9 °C 36% 1022.9 hPa 602 W/m² 0.0 mm 0.000 mm 14.5 km/h
14:10 19.6 °C 4.1 °C 16.1 °C 36% 1022.9 hPa 589 W/m² 0.0 mm 0.000 mm 18.1 km/h
14:15 19.5 °C 4.4 °C 15.8 °C 37% 1022.9 hPa 589 W/m² 0.0 mm 0.000 mm 18.9 km/h
14:20 19.6 °C 4.1 °C 15.3 °C 36% 1022.8 hPa 587 W/m² 0.0 mm 0.000 mm 22.1 km/h
14:25 19.6 °C 4.1 °C 15.7 °C 36% 1022.7 hPa 583 W/m² 0.0 mm 0.000 mm 20.1 km/h
14:30 19.6 °C 4.1 °C 14.8 °C 36% 1022.7 hPa 573 W/m² 0.0 mm 0.000 mm 25.1 km/h
14:35 19.6 °C 4.5 °C 16.6 °C 37% 1022.6 hPa 567 W/m² 0.0 mm 0.000 mm 15.9 km/h
14:40 19.6 °C 4.5 °C 13.6 °C 37% 1022.6 hPa 561 W/m² 0.0 mm 0.000 mm 35.0 km/h
14:45 19.6 °C 4.5 °C 18.3 °C 37% 1022.6 hPa 547 W/m² 0.0 mm 0.000 mm 9.6 km/h
14:50 19.6 °C 4.5 °C 16.3 °C 37% 1022.6 hPa 534 W/m² 0.0 mm 0.000 mm 16.9 km/h
14:55 19.7 °C 5.0 °C 14.1 °C 38% 1022.5 hPa 526 W/m² 0.0 mm 0.000 mm 31.7 km/h
15:00 19.8 °C 4.7 °C 15.9 °C 37% 1022.5 hPa 517 W/m² 0.0 mm 0.508 mm 20.2 km/h
15:05 19.9 °C 4.4 °C 16.8 °C 36% 1022.5 hPa 505 W/m² 0.0 mm 0.000 mm 16.3 km/h
15:10 19.9 °C 4.4 °C 17.0 °C 36% 1022.4 hPa 495 W/m² 0.0 mm 0.000 mm 15.4 km/h
15:15 20.0 °C 4.5 °C 15.9 °C 36% 1022.4 hPa 491 W/m² 0.0 mm 0.000 mm 21.9 km/h
15:20 19.9 °C 4.0 °C 18.2 °C 35% 1022.4 hPa 482 W/m² 0.0 mm 0.000 mm 11.2 km/h